Time;durP1;ratioP1;P1;durP2;ratioP2;P2;SDS_P1;SDS_P2;PMS_P1;PMS_P2;Temp;Humidity;BMP_temperature;BMP_pressure;BME280_temperature;BME280_humidity;BME280_pressure;Samples;Min_cycle;Max_cycle;Signal;HPM_P1;HPM_P2
2022/11/28 00:01:07;;;;;;;16.63;8.13;;;;;;;;;;4871084;29;20108;-77
2022/11/28 00:03:34;;;;;;;18.67;8.70;;;;;;;;;;4889048;29;20057;-77
2022/11/28 00:06:04;;;;;;;21.08;7.70;;;;;;;;;;4893437;29;20614;-78
2022/11/28 00:08:31;;;;;;;20.67;8.55;;;;;;;;;;4881897;29;20156;-78
2022/11/28 00:10:57;;;;;;;19.13;8.82;;;;;;;;;;4876900;29;20515;-77
2022/11/28 00:13:23;;;;;;;16.58;8.00;;;;;;;;;;4890406;29;20052;-77
2022/11/28 00:15:54;;;;;;;20.60;8.05;;;;;;;;;;4892929;29;20543;-77
2022/11/28 00:18:20;;;;;;;18.45;8.40;;;;;;;;;;4901228;29;20255;-77
2022/11/28 00:20:46;;;;;;;17.48;7.55;;;;;;;;;;4891456;29;20061;-77
2022/11/28 00:23:13;;;;;;;14.93;7.43;;;;;;;;;;4891505;29;20061;-77
2022/11/28 00:25:39;;;;;;;21.85;7.68;;;;;;;;;;4889526;29;20072;-77
2022/11/28 00:28:05;;;;;;;17.17;7.70;;;;;;;;;;4899352;29;20064;-78
2022/11/28 00:30:35;;;;;;;15.85;7.85;;;;;;;;;;4891765;29;20056;-77
2022/11/28 00:33:02;;;;;;;14.48;7.38;;;;;;;;;;4891451;29;20105;-77
2022/11/28 00:35:28;;;;;;;16.80;8.00;;;;;;;;;;4866238;29;20062;-77
2022/11/28 00:37:55;;;;;;;16.65;7.45;;;;;;;;;;4891770;29;20587;-77
2022/11/28 00:40:21;;;;;;;16.27;7.82;;;;;;;;;;4868346;29;20064;-77
2022/11/28 00:42:48;;;;;;;15.52;7.10;;;;;;;;;;4885578;29;20049;-77
2022/11/28 00:45:14;;;;;;;15.38;7.90;;;;;;;;;;4887003;29;20065;-77
2022/11/28 00:47:40;;;;;;;18.35;8.35;;;;;;;;;;4904830;29;20084;-78
2022/11/28 00:50:07;;;;;;;15.95;8.52;;;;;;;;;;4881110;29;20509;-77
2022/11/28 00:52:33;;;;;;;14.40;7.40;;;;;;;;;;4891003;29;20073;-77
2022/11/28 00:54:59;;;;;;;21.02;8.38;;;;;;;;;;4891249;29;20058;-77
2022/11/28 00:57:26;;;;;;;16.30;8.18;;;;;;;;;;4874031;29;20064;-77
2022/11/28 00:59:52;;;;;;;19.75;9.55;;;;;;;;;;4889118;29;20069;-78
2022/11/28 01:02:18;;;;;;;20.40;8.48;;;;;;;;;;4874936;29;20527;-77
2022/11/28 01:04:45;;;;;;;17.80;8.80;;;;;;;;;;4888078;29;20056;-77
2022/11/28 01:07:11;;;;;;;15.90;8.40;;;;;;;;;;4911315;29;20057;-78
2022/11/28 01:09:37;;;;;;;19.08;8.80;;;;;;;;;;4909013;29;20105;-77
2022/11/28 01:12:04;;;;;;;18.42;8.43;;;;;;;;;;4894875;29;20055;-78
2022/11/28 01:14:30;;;;;;;19.98;8.90;;;;;;;;;;4887688;29;20524;-77
2022/11/28 01:16:57;;;;;;;22.95;8.80;;;;;;;;;;4896073;29;20065;-78
2022/11/28 01:19:23;;;;;;;24.55;9.23;;;;;;;;;;4883108;29;20564;-78
2022/11/28 01:21:49;;;;;;;22.95;8.77;;;;;;;;;;4891625;29;20053;-78
2022/11/28 01:24:16;;;;;;;19.70;8.63;;;;;;;;;;4889848;29;20249;-77
2022/11/28 01:26:42;;;;;;;24.17;9.07;;;;;;;;;;4875794;29;20221;-77
2022/11/28 01:29:09;;;;;;;21.80;9.38;;;;;;;;;;4867055;29;20093;-78
2022/11/28 01:31:36;;;;;;;24.65;8.57;;;;;;;;;;4874257;29;20062;-77
2022/11/28 01:34:02;;;;;;;23.63;9.32;;;;;;;;;;4873641;29;20056;-77
2022/11/28 01:36:29;;;;;;;20.27;8.68;;;;;;;;;;4893797;29;20658;-78
2022/11/28 01:38:55;;;;;;;19.10;9.32;;;;;;;;;;4884277;29;20113;-77
2022/11/28 01:41:23;;;;;;;22.00;8.70;;;;;;;;;;4857440;29;20053;-78
2022/11/28 01:43:56;;;;;;;16.88;8.10;;;;;;;;;;4879013;29;20126;-78
2022/11/28 01:46:22;;;;;;;16.63;8.10;;;;;;;;;;4885649;29;20152;-77
2022/11/28 01:48:49;;;;;;;19.33;8.95;;;;;;;;;;4871418;29;20061;-77
2022/11/28 01:51:16;;;;;;;19.45;8.73;;;;;;;;;;4884296;29;20057;-78
2022/11/28 01:53:44;;;;;;;16.38;7.65;;;;;;;;;;4891195;29;20544;-77
2022/11/28 01:56:18;;;;;;;17.95;8.15;;;;;;;;;;4873631;29;20053;-77
2022/11/28 01:58:49;;;;;;;20.52;7.88;;;;;;;;;;4872713;29;20065;-77
2022/11/28 02:01:16;;;;;;;23.70;8.02;;;;;;;;;;4879790;29;20889;-77
2022/11/28 02:03:43;;;;;;;19.25;8.57;;;;;;;;;;4877235;29;20096;-78
2022/11/28 02:06:11;;;;;;;18.80;8.13;;;;;;;;;;4866461;29;20068;-77
2022/11/28 02:08:37;;;;;;;21.48;7.85;;;;;;;;;;4884818;29;20542;-78
2022/11/28 02:11:10;;;;;;;20.73;7.78;;;;;;;;;;4870451;29;20068;-77
2022/11/28 02:13:45;;;;;;;19.30;8.50;;;;;;;;;;4875492;29;20164;-77
2022/11/28 02:16:15;;;;;;;20.70;8.05;;;;;;;;;;4879808;29;20057;-77
2022/11/28 02:18:50;;;;;;;16.45;7.57;;;;;;;;;;4874311;29;20061;-77
2022/11/28 02:21:22;;;;;;;18.25;7.80;;;;;;;;;;4889341;29;20053;-77
2022/11/28 02:23:51;;;;;;;19.00;7.93;;;;;;;;;;4890292;29;20147;-77
2022/11/28 02:26:33;;;;;;;18.30;8.07;;;;;;;;;;4876708;29;20074;-77
2022/11/28 02:29:02;;;;;;;17.73;7.85;;;;;;;;;;4891640;29;20053;-77
2022/11/28 02:31:47;;;;;;;23.63;7.95;;;;;;;;;;4889944;29;20060;-77
2022/11/28 02:34:37;;;;;;;19.40;7.47;;;;;;;;;;4865726;29;20076;-77
2022/11/28 02:37:13;;;;;;;16.95;7.00;;;;;;;;;;4853863;29;20065;-77
2022/11/28 02:39:54;;;;;;;23.70;7.90;;;;;;;;;;4883238;29;20041;-77
2022/11/28 02:42:26;;;;;;;18.50;7.13;;;;;;;;;;4875633;29;20072;-77
2022/11/28 02:44:56;;;;;;;16.08;6.78;;;;;;;;;;4888311;29;20071;-78
2022/11/28 02:47:24;;;;;;;18.63;7.68;;;;;;;;;;4874885;29;20148;-77
2022/11/28 02:50:00;;;;;;;14.57;6.82;;;;;;;;;;4874860;29;20056;-77
2022/11/28 02:52:28;;;;;;;16.55;6.68;;;;;;;;;;4889759;29;20064;-77
2022/11/28 02:54:55;;;;;;;16.25;7.13;;;;;;;;;;4885022;29;20053;-77
2022/11/28 02:57:21;;;;;;;15.20;7.32;;;;;;;;;;4891283;29;20492;-77
2022/11/28 02:59:49;;;;;;;12.82;6.25;;;;;;;;;;4874800;29;20092;-78
2022/11/28 03:02:21;;;;;;;13.40;6.00;;;;;;;;;;4865525;29;20657;-77
2022/11/28 03:04:54;;;;;;;20.20;6.43;;;;;;;;;;4883550;29;20125;-77
2022/11/28 03:07:29;;;;;;;15.15;5.85;;;;;;;;;;4904727;29;20780;-77
2022/11/28 03:09:55;;;;;;;16.00;5.75;;;;;;;;;;4889205;29;20061;-77
2022/11/28 03:12:35;;;;;;;16.80;6.43;;;;;;;;;;4864338;29;20057;-78
2022/11/28 03:15:06;;;;;;;14.18;6.10;;;;;;;;;;4884276;29;20067;-77
2022/11/28 03:17:32;;;;;;;14.25;6.18;;;;;;;;;;4873578;29;20178;-77
2022/11/28 03:20:05;;;;;;;18.25;6.63;;;;;;;;;;4874234;29;20136;-77
2022/11/28 03:22:31;;;;;;;13.00;6.07;;;;;;;;;;4888936;29;20085;-78
2022/11/28 03:25:09;;;;;;;13.90;6.55;;;;;;;;;;4877581;29;20061;-77
2022/11/28 03:27:47;;;;;;;15.35;6.78;;;;;;;;;;4882262;29;20064;-78
2022/11/28 03:30:18;;;;;;;14.55;6.85;;;;;;;;;;4890273;29;20088;-77
2022/11/28 03:32:44;;;;;;;;;;;;;;;;;;4889072;29;20924;-77
2022/11/28 03:35:13;;;;;;;14.15;6.00;;;;;;;;;;4885289;29;47935;-77
2022/11/28 03:37:46;;;;;;;13.20;5.95;;;;;;;;;;4867517;29;20142;-78
2022/11/28 03:40:15;;;;;;;15.18;6.40;;;;;;;;;;4869152;29;20067;-77
2022/11/28 03:42:46;;;;;;;14.25;6.05;;;;;;;;;;4890938;29;20060;-77
2022/11/28 03:45:16;;;;;;;12.40;6.22;;;;;;;;;;4901584;29;20052;-77
2022/11/28 03:47:44;;;;;;;12.40;6.30;;;;;;;;;;4877610;29;20046;-77
2022/11/28 03:50:14;;;;;;;13.02;6.15;;;;;;;;;;4888636;29;20063;-77
2022/11/28 03:52:45;;;;;;;12.77;6.30;;;;;;;;;;4890021;29;20072;-77
2022/11/28 03:55:17;;;;;;;13.00;6.80;;;;;;;;;;4882327;29;20057;-78
2022/11/28 03:57:47;;;;;;;17.17;6.68;;;;;;;;;;4895380;29;20064;-78
2022/11/28 04:00:14;;;;;;;14.02;6.70;;;;;;;;;;4888184;29;20057;-77
2022/11/28 04:02:59;;;;;;;13.98;6.35;;;;;;;;;;4889992;29;20750;-77
2022/11/28 04:05:25;;;;;;;16.35;6.88;;;;;;;;;;4884475;29;20053;-77
2022/11/28 04:07:57;;;;;;;13.45;6.82;;;;;;;;;;4873343;29;20473;-78
2022/11/28 04:10:28;;;;;;;15.38;6.57;;;;;;;;;;4889154;29;20093;-77
2022/11/28 04:12:55;;;;;;;14.60;6.38;;;;;;;;;;4888745;29;20152;-77
2022/11/28 04:15:27;;;;;;;16.70;7.03;;;;;;;;;;4882769;29;20149;-77
2022/11/28 04:18:12;;;;;;;14.32;6.85;;;;;;;;;;4897404;29;20061;-77
2022/11/28 04:20:42;;;;;;;14.40;6.47;;;;;;;;;;4888004;29;20140;-77
2022/11/28 04:23:10;;;;;;;23.50;7.47;;;;;;;;;;4871163;29;20057;-77
2022/11/28 04:25:38;;;;;;;13.65;6.68;;;;;;;;;;4864563;29;20375;-77
2022/11/28 04:28:11;;;;;;;17.38;7.32;;;;;;;;;;4868527;29;20483;-77
2022/11/28 04:30:39;;;;;;;16.00;7.18;;;;;;;;;;4853596;29;20053;-77
2022/11/28 04:33:08;;;;;;;15.65;6.70;;;;;;;;;;4865162;29;20077;-77
2022/11/28 04:35:39;;;;;;;17.15;7.03;;;;;;;;;;4878362;29;20072;-77
2022/11/28 04:38:06;;;;;;;17.38;7.32;;;;;;;;;;4877602;29;20061;-78
2022/11/28 04:40:36;;;;;;;17.20;7.55;;;;;;;;;;4870749;29;20128;-77
2022/11/28 04:43:07;;;;;;;16.20;6.95;;;;;;;;;;4870706;29;20057;-77
2022/11/28 04:45:36;;;;;;;15.68;6.88;;;;;;;;;;4869249;29;20508;-78
2022/11/28 04:48:02;;;;;;;17.42;7.07;;;;;;;;;;4873336;29;20576;-77
2022/11/28 04:50:31;;;;;;;15.10;7.35;;;;;;;;;;4870183;29;20172;-77
2022/11/28 04:53:07;;;;;;;13.95;7.07;;;;;;;;;;4882280;29;20597;-78
2022/11/28 04:55:36;;;;;;;16.67;7.68;;;;;;;;;;4858100;29;20512;-78
2022/11/28 04:58:10;;;;;;;16.38;7.32;;;;;;;;;;4854721;29;20061;-78
2022/11/28 05:00:37;;;;;;;17.42;7.32;;;;;;;;;;4853866;29;20532;-78
2022/11/28 05:03:04;;;;;;;15.77;7.00;;;;;;;;;;4852688;29;20058;-78
2022/11/28 05:05:30;;;;;;;18.73;7.55;;;;;;;;;;4865463;29;20061;-78
2022/11/28 05:07:58;;;;;;;17.77;7.38;;;;;;;;;;4880378;29;20140;-78
2022/11/28 05:10:24;;;;;;;14.68;7.28;;;;;;;;;;4875653;29;20145;-78
2022/11/28 05:12:51;;;;;;;15.48;7.22;;;;;;;;;;4865737;29;20057;-78
2022/11/28 05:15:18;;;;;;;17.52;7.57;;;;;;;;;;4861680;29;20138;-78
2022/11/28 05:17:45;;;;;;;17.17;7.45;;;;;;;;;;4870787;29;20083;-78
2022/11/28 05:20:12;;;;;;;21.77;7.03;;;;;;;;;;4870605;29;20068;-78
2022/11/28 05:22:38;;;;;;;17.33;7.22;;;;;;;;;;4856946;29;20065;-78
2022/11/28 05:25:05;;;;;;;17.75;7.72;;;;;;;;;;4853280;29;20065;-78
2022/11/28 05:27:31;;;;;;;12.30;6.43;;;;;;;;;;4871402;29;20072;-78
2022/11/28 05:29:57;;;;;;;19.52;7.65;;;;;;;;;;4870480;29;20551;-78
2022/11/28 05:32:24;;;;;;;19.17;7.72;;;;;;;;;;4866696;29;20049;-78
2022/11/28 05:34:50;;;;;;;16.35;7.78;;;;;;;;;;4868790;29;20111;-78
2022/11/28 05:37:16;;;;;;;15.82;7.68;;;;;;;;;;4871530;29;20543;-78
2022/11/28 05:39:43;;;;;;;15.23;7.22;;;;;;;;;;4865306;29;20054;-78
2022/11/28 05:42:10;;;;;;;15.13;7.38;;;;;;;;;;4862021;29;20064;-78
2022/11/28 05:44:36;;;;;;;18.27;8.00;;;;;;;;;;4863859;29;20054;-78
2022/11/28 05:47:02;;;;;;;16.58;7.38;;;;;;;;;;4863034;29;20041;-78
2022/11/28 05:49:29;;;;;;;17.90;8.15;;;;;;;;;;4869687;29;20054;-78
2022/11/28 05:51:55;;;;;;;16.42;7.40;;;;;;;;;;4873225;29;20555;-78
2022/11/28 05:54:21;;;;;;;16.55;7.55;;;;;;;;;;4873168;29;20059;-78
2022/11/28 05:56:48;;;;;;;15.95;7.03;;;;;;;;;;4871348;29;20062;-78
2022/11/28 05:59:14;;;;;;;16.70;7.50;;;;;;;;;;4875114;29;20909;-80
2022/11/28 06:01:41;;;;;;;19.23;8.25;;;;;;;;;;4878506;29;20058;-80
2022/11/28 06:04:07;;;;;;;17.50;7.50;;;;;;;;;;4874640;29;20564;-80
2022/11/28 06:06:34;;;;;;;15.07;7.40;;;;;;;;;;4865657;29;20057;-78
2022/11/28 06:09:00;;;;;;;18.17;7.97;;;;;;;;;;4860929;29;20064;-78
2022/11/28 06:11:28;;;;;;;16.42;7.78;;;;;;;;;;4867630;29;20175;-78
2022/11/28 06:13:55;;;;;;;15.93;7.35;;;;;;;;;;4866026;29;20058;-78
2022/11/28 06:16:23;;;;;;;12.85;6.75;;;;;;;;;;4851017;29;20065;-78
2022/11/28 06:18:56;;;;;;;18.67;7.95;;;;;;;;;;4864673;29;20174;-78
2022/11/28 06:21:23;;;;;;;18.63;8.00;;;;;;;;;;4831761;29;20057;-78
2022/11/28 06:23:50;;;;;;;18.65;7.40;;;;;;;;;;4869959;29;20700;-78
2022/11/28 06:26:18;;;;;;;18.83;8.13;;;;;;;;;;4881943;29;20071;-78
2022/11/28 06:28:44;;;;;;;17.40;7.28;;;;;;;;;;4872169;29;20060;-78
2022/11/28 06:31:11;;;;;;;15.68;8.32;;;;;;;;;;4887124;29;20136;-79
2022/11/28 06:33:38;;;;;;;14.70;7.75;;;;;;;;;;4874102;29;20113;-79
2022/11/28 06:36:04;;;;;;;17.17;7.53;;;;;;;;;;4875070;29;20084;-79
2022/11/28 06:38:31;;;;;;;16.00;7.05;;;;;;;;;;4888848;29;20061;-78
2022/11/28 06:40:58;;;;;;;16.48;8.13;;;;;;;;;;4878442;29;20126;-78
2022/11/28 06:43:25;;;;;;;16.73;7.60;;;;;;;;;;4891714;29;20606;-78
2022/11/28 06:45:51;;;;;;;18.35;8.35;;;;;;;;;;4869930;29;20108;-77
2022/11/28 06:48:18;;;;;;;16.00;7.10;;;;;;;;;;4871800;29;20057;-78
2022/11/28 06:50:44;;;;;;;16.65;7.93;;;;;;;;;;4872907;29;20076;-77
2022/11/28 06:53:11;;;;;;;17.38;7.93;;;;;;;;;;4889414;29;20068;-77
2022/11/28 06:55:38;;;;;;;14.63;7.15;;;;;;;;;;4887268;29;20603;-77
2022/11/28 06:58:04;;;;;;;16.63;8.00;;;;;;;;;;4873093;29;20540;-78
2022/11/28 07:00:30;;;;;;;14.70;7.13;;;;;;;;;;4869863;29;20069;-78
2022/11/28 07:02:57;;;;;;;19.55;8.20;;;;;;;;;;4886904;29;20064;-77
2022/11/28 07:05:26;;;;;;;19.25;8.85;;;;;;;;;;4869527;29;20116;-77
2022/11/28 07:07:53;;;;;;;18.48;8.48;;;;;;;;;;4866984;29;20528;-77
2022/11/28 07:10:20;;;;;;;19.20;8.73;;;;;;;;;;4867860;29;20060;-77
2022/11/28 07:12:51;;;;;;;20.25;8.25;;;;;;;;;;4883653;29;20063;-77
2022/11/28 07:15:18;;;;;;;18.10;7.93;;;;;;;;;;4867200;29;20527;-77
2022/11/28 07:17:44;;;;;;;20.20;8.82;;;;;;;;;;4870115;29;20148;-78
2022/11/28 07:20:11;;;;;;;20.17;8.23;;;;;;;;;;4865792;29;20060;-78
2022/11/28 07:22:37;;;;;;;18.75;8.52;;;;;;;;;;4866006;29;20827;-78
2022/11/28 07:25:04;;;;;;;20.17;8.85;;;;;;;;;;4890041;29;20065;-78
2022/11/28 07:27:30;;;;;;;19.50;8.38;;;;;;;;;;4866463;29;20057;-78
2022/11/28 07:29:56;;;;;;;23.52;8.95;;;;;;;;;;4871009;29;20140;-78
2022/11/28 07:32:23;;;;;;;25.33;10.13;;;;;;;;;;4846092;29;20116;-78
2022/11/28 07:34:49;;;;;;;22.48;9.35;;;;;;;;;;4858922;29;21020;-78
2022/11/28 07:37:15;;;;;;;20.90;8.90;;;;;;;;;;4863062;29;20057;-78
2022/11/28 07:39:43;;;;;;;20.15;9.07;;;;;;;;;;4873127;29;20060;-78
2022/11/28 07:42:10;;;;;;;23.25;10.00;;;;;;;;;;4890648;29;20069;-78
2022/11/28 07:44:37;;;;;;;24.02;9.73;;;;;;;;;;4837884;29;20442;-78
2022/11/28 07:47:03;;;;;;;26.30;9.98;;;;;;;;;;4848535;29;20915;-81
2022/11/28 07:49:30;;;;;;;28.55;10.57;;;;;;;;;;4865108;29;20501;-77
2022/11/28 07:51:56;;;;;;;23.20;10.50;;;;;;;;;;4875921;29;20148;-78
2022/11/28 07:54:23;;;;;;;25.40;11.32;;;;;;;;;;4856514;29;20060;-78
2022/11/28 07:56:49;;;;;;;35.35;15.20;;;;;;;;;;4843979;29;20053;-78
2022/11/28 07:59:35;;;;;;;30.23;11.68;;;;;;;;;;4849240;29;20064;-78
2022/11/28 08:02:02;;;;;;;26.50;11.15;;;;;;;;;;4856043;29;20064;-78
2022/11/28 08:04:29;;;;;;;29.15;11.15;;;;;;;;;;4854685;29;20440;-78
2022/11/28 08:06:55;;;;;;;31.00;12.13;;;;;;;;;;4860895;29;20068;-77
2022/11/28 08:09:22;;;;;;;28.77;11.02;;;;;;;;;;4857719;29;20140;-78
2022/11/28 08:11:51;;;;;;;30.33;11.70;;;;;;;;;;4857564;29;20053;-77
2022/11/28 08:14:17;;;;;;;30.42;11.63;;;;;;;;;;4855388;29;20063;-77
2022/11/28 08:16:44;;;;;;;31.38;11.15;;;;;;;;;;4843290;29;20526;-78
2022/11/28 08:19:10;;;;;;;30.77;11.35;;;;;;;;;;4855546;29;21384;-77
2022/11/28 08:21:37;;;;;;;29.90;11.07;;;;;;;;;;4856600;29;20081;-78
2022/11/28 08:24:04;;;;;;;25.75;10.30;;;;;;;;;;4867898;29;20066;-78
2022/11/28 08:26:31;;;;;;;28.63;10.82;;;;;;;;;;4875452;29;20068;-78
2022/11/28 08:28:58;;;;;;;28.05;10.48;;;;;;;;;;4857133;29;20911;-78
2022/11/28 08:31:26;;;;;;;31.33;9.63;;;;;;;;;;4873285;29;20072;-78
2022/11/28 08:33:53;;;;;;;24.75;9.52;;;;;;;;;;4855920;29;20865;-79
2022/11/28 08:36:20;;;;;;;26.52;9.93;;;;;;;;;;4877034;29;20068;-78
2022/11/28 08:38:47;;;;;;;27.05;9.52;;;;;;;;;;4872198;29;20296;-78
2022/11/28 08:41:33;;;;;;;26.63;9.80;;;;;;;;;;4861737;29;20073;-78
2022/11/28 08:44:00;;;;;;;25.38;9.95;;;;;;;;;;4860869;29;20065;-78
2022/11/28 08:46:26;;;;;;;24.73;9.00;;;;;;;;;;4863126;29;20053;-78
2022/11/28 08:48:53;;;;;;;24.40;10.10;;;;;;;;;;4877076;29;20064;-78
2022/11/28 08:51:22;;;;;;;21.65;9.13;;;;;;;;;;4874340;29;20309;-78
2022/11/28 08:53:49;;;;;;;21.33;9.27;;;;;;;;;;4859744;29;20896;-78
2022/11/28 08:56:23;;;;;;;24.75;10.50;;;;;;;;;;4872812;29;20057;-78
2022/11/28 08:58:49;;;;;;;27.85;11.35;;;;;;;;;;4855244;29;20601;-78
2022/11/28 09:01:17;;;;;;;24.75;9.68;;;;;;;;;;4870927;29;20069;-78
2022/11/28 09:03:44;;;;;;;21.40;9.63;;;;;;;;;;4862075;29;20399;-78
2022/11/28 09:06:11;;;;;;;20.80;9.43;;;;;;;;;;4859896;29;20065;-78
2022/11/28 09:08:37;;;;;;;22.67;9.38;;;;;;;;;;4871807;29;20523;-78
2022/11/28 09:11:08;;;;;;;24.50;9.90;;;;;;;;;;4876755;29;20068;-77
2022/11/28 09:13:35;;;;;;;23.08;9.52;;;;;;;;;;4873892;29;20999;-78
2022/11/28 09:16:03;;;;;;;26.23;10.10;;;;;;;;;;4874342;29;20061;-78
2022/11/28 09:18:29;;;;;;;25.17;9.95;;;;;;;;;;4873992;29;20084;-78
2022/11/28 09:21:04;;;;;;;28.45;9.32;;;;;;;;;;4854136;29;20061;-78
2022/11/28 09:23:30;;;;;;;23.98;9.70;;;;;;;;;;4857769;29;20165;-78
2022/11/28 09:25:57;;;;;;;33.05;10.93;;;;;;;;;;4886585;29;20061;-78
2022/11/28 09:28:23;;;;;;;31.45;10.68;;;;;;;;;;4891644;29;20060;-78
2022/11/28 09:30:58;;;;;;;28.45;11.05;;;;;;;;;;4888499;29;20137;-78
2022/11/28 09:33:24;;;;;;;33.83;10.80;;;;;;;;;;4866253;29;20045;-79
2022/11/28 09:35:50;;;;;;;33.30;12.20;;;;;;;;;;4881453;29;20077;-78
2022/11/28 09:38:17;;;;;;;34.13;12.05;;;;;;;;;;4895083;29;20147;-78
2022/11/28 09:40:43;;;;;;;38.78;12.60;;;;;;;;;;4871653;29;20148;-78
2022/11/28 09:43:21;;;;;;;35.78;11.70;;;;;;;;;;4888557;29;20118;-78
2022/11/28 09:45:51;;;;;;;40.78;13.68;;;;;;;;;;4884880;29;20519;-78
2022/11/28 09:48:27;;;;;;;39.83;12.60;;;;;;;;;;4889827;29;20077;-78
2022/11/28 09:50:56;;;;;;;45.05;14.15;;;;;;;;;;4873578;29;20049;-78
2022/11/28 09:53:29;;;;;;;44.10;14.23;;;;;;;;;;4892971;29;20057;-78
2022/11/28 09:56:03;;;;;;;48.03;14.43;;;;;;;;;;4870781;29;20057;-79
2022/11/28 09:58:46;;;;;;;49.97;15.63;;;;;;;;;;4875341;29;20263;-78
2022/11/28 10:01:16;;;;;;;54.03;15.85;;;;;;;;;;4862411;29;20059;-78
2022/11/28 10:03:48;;;;;;;42.70;14.27;;;;;;;;;;4890335;29;20053;-78
2022/11/28 10:06:19;;;;;;;53.95;16.13;;;;;;;;;;4884457;29;20053;-78
2022/11/28 10:08:48;;;;;;;54.50;15.18;;;;;;;;;;4893450;29;20072;-78
2022/11/28 10:11:34;;;;;;;50.00;15.18;;;;;;;;;;4894491;29;20096;-78
2022/11/28 10:14:19;;;;;;;60.97;16.33;;;;;;;;;;4875591;29;20521;-78
2022/11/28 10:16:55;;;;;;;65.35;16.60;;;;;;;;;;4870211;29;20065;-78
2022/11/28 10:19:29;;;;;;;62.40;16.05;;;;;;;;;;4874350;29;20767;-78
2022/11/28 10:22:17;;;;;;;59.47;15.93;;;;;;;;;;4890193;29;20693;-78
2022/11/28 10:24:47;;;;;;;65.07;17.10;;;;;;;;;;4875403;29;20067;-78
2022/11/28 10:27:14;;;;;;;70.25;16.55;;;;;;;;;;4881263;29;20050;-78
2022/11/28 10:30:16;;;;;;;64.47;17.83;;;;;;;;;;4884600;29;20959;-76
2022/11/28 10:32:45;;;;;;;62.03;17.38;;;;;;;;;;4848116;29;20058;-76
2022/11/28 10:35:24;;;;;;;80.38;18.83;;;;;;;;;;4870565;29;20054;-76
2022/11/28 10:37:54;;;;;;;62.15;17.92;;;;;;;;;;4865720;29;20061;-79
2022/11/28 10:40:34;;;;;;;75.30;18.30;;;;;;;;;;4884571;29;20050;-79
2022/11/28 10:43:04;;;;;;;76.50;20.83;;;;;;;;;;4882431;29;20068;-77
2022/11/28 10:45:33;;;;;;;82.07;19.73;;;;;;;;;;4882045;29;20528;-79
2022/11/28 10:47:59;;;;;;;78.82;19.20;;;;;;;;;;4872491;29;20525;-78
2022/11/28 10:50:51;;;;;;;87.68;19.95;;;;;;;;;;4883286;29;20521;-77
2022/11/28 10:53:25;;;;;;;79.55;20.45;;;;;;;;;;4866646;29;20093;-77
2022/11/28 10:56:01;;;;;;;76.63;20.60;;;;;;;;;;4885502;29;20057;-77
2022/11/28 10:58:35;;;;;;;80.25;20.23;;;;;;;;;;4859570;29;20148;-79
2022/11/28 11:01:02;;;;;;;75.20;20.42;;;;;;;;;;4881015;29;20079;-78
2022/11/28 11:03:29;;;;;;;84.03;20.27;;;;;;;;;;4887219;29;20524;-78
2022/11/28 11:05:56;;;;;;;78.05;19.80;;;;;;;;;;4886979;29;20057;-78
2022/11/28 11:08:24;;;;;;;77.93;20.35;;;;;;;;;;4885734;29;20059;-77
2022/11/28 11:10:51;;;;;;;76.65;20.50;;;;;;;;;;4900427;29;20056;-78
2022/11/28 11:13:19;;;;;;;72.28;19.52;;;;;;;;;;4864637;29;20067;-78
2022/11/28 11:15:48;;;;;;;70.18;20.55;;;;;;;;;;4882650;29;20057;-78
2022/11/28 11:18:22;;;;;;;70.55;19.80;;;;;;;;;;4865193;29;20838;-79
2022/11/28 11:20:49;;;;;;;78.75;19.77;;;;;;;;;;4867085;29;20064;-78
2022/11/28 11:23:20;;;;;;;66.18;19.92;;;;;;;;;;4888661;29;20084;-79
2022/11/28 11:25:54;;;;;;;69.82;20.50;;;;;;;;;;4884711;29;20144;-79
2022/11/28 11:28:36;;;;;;;70.20;20.25;;;;;;;;;;4889040;29;20060;-78
2022/11/28 11:31:04;;;;;;;74.28;21.38;;;;;;;;;;4889334;29;20080;-79
2022/11/28 11:33:34;;;;;;;73.75;20.83;;;;;;;;;;4888156;29;20045;-78
2022/11/28 11:36:02;;;;;;;75.43;20.55;;;;;;;;;;4861771;29;20064;-78
2022/11/28 11:38:29;;;;;;;73.22;21.23;;;;;;;;;;4892672;29;20072;-78
2022/11/28 11:41:21;;;;;;;66.45;19.48;;;;;;;;;;4889332;29;20105;-78
2022/11/28 11:43:47;;;;;;;59.53;18.52;;;;;;;;;;4870991;29;20071;-79
2022/11/28 11:46:15;;;;;;;62.40;18.02;;;;;;;;;;4869886;29;20076;-77
2022/11/28 11:48:45;;;;;;;61.03;17.48;;;;;;;;;;4872627;29;20148;-78
2022/11/28 11:51:25;;;;;;;54.90;17.83;;;;;;;;;;4880287;29;20064;-78
2022/11/28 11:54:02;;;;;;;62.28;19.50;;;;;;;;;;4900026;29;20061;-79
2022/11/28 11:56:31;;;;;;;57.95;17.45;;;;;;;;;;4864405;29;20063;-78
2022/11/28 11:58:57;;;;;;;62.20;18.88;;;;;;;;;;4872155;29;20061;-78
2022/11/28 12:01:25;;;;;;;57.33;19.52;;;;;;;;;;4888883;29;20064;-78
2022/11/28 12:03:53;;;;;;;57.70;21.63;;;;;;;;;;4880571;29;20062;-78
2022/11/28 12:06:26;;;;;;;59.50;18.13;;;;;;;;;;4886338;29;20100;-77
2022/11/28 12:09:12;;;;;;;52.20;17.65;;;;;;;;;;4867152;29;20057;-77
2022/11/28 12:11:39;;;;;;;62.42;19.38;;;;;;;;;;4883841;29;20057;-78
2022/11/28 12:14:27;;;;;;;57.08;18.75;;;;;;;;;;4870275;29;20077;-82
2022/11/28 12:16:54;;;;;;;56.60;17.58;;;;;;;;;;4875479;29;20515;-77
2022/11/28 12:19:39;;;;;;;62.65;19.75;;;;;;;;;;4868445;29;20136;-77
2022/11/28 12:22:17;;;;;;;58.42;19.25;;;;;;;;;;4885201;29;20053;-77
2022/11/28 12:24:55;;;;;;;59.53;19.40;;;;;;;;;;4884033;29;20072;-77
2022/11/28 12:27:28;;;;;;;61.92;18.63;;;;;;;;;;4868722;29;20539;-77
2022/11/28 12:30:03;;;;;;;56.83;18.60;;;;;;;;;;4878439;29;20057;-77
2022/11/28 12:32:42;;;;;;;60.40;18.77;;;;;;;;;;4882759;29;20140;-76
2022/11/28 12:35:12;;;;;;;55.60;19.10;;;;;;;;;;4880050;29;20064;-77
2022/11/28 12:38:01;;;;;;;56.58;18.80;;;;;;;;;;4866313;29;20064;-77
2022/11/28 12:40:49;;;;;;;61.60;19.13;;;;;;;;;;4872504;29;20065;-78
2022/11/28 12:43:34;;;;;;;54.97;18.52;;;;;;;;;;4862746;29;20144;-77
2022/11/28 12:46:09;;;;;;;59.97;18.20;;;;;;;;;;4875572;29;20058;-77
2022/11/28 12:48:48;;;;;;;60.65;19.50;;;;;;;;;;4867712;29;20061;-77
2022/11/28 12:51:28;;;;;;;52.63;17.90;;;;;;;;;;4870467;29;20056;-77
2022/11/28 12:54:00;;;;;;;57.53;18.60;;;;;;;;;;4885259;29;20447;-77
2022/11/28 12:56:31;;;;;;;59.05;19.67;;;;;;;;;;4859313;29;20053;-77
2022/11/28 12:59:02;;;;;;;62.70;19.15;;;;;;;;;;4877345;29;20057;-77
2022/11/28 13:01:28;;;;;;;;;;;;;;;;;;4899285;29;20900;-77
2022/11/28 13:03:55;;;;;;;59.33;17.92;;;;;;;;;;4872980;29;46854;-77
2022/11/28 13:06:27;;;;;;;56.17;18.17;;;;;;;;;;4883169;29;20053;-77
2022/11/28 13:09:03;;;;;;;60.25;18.92;;;;;;;;;;4871367;29;20525;-76
2022/11/28 13:11:39;;;;;;;56.60;19.00;;;;;;;;;;4886236;29;20057;-77
2022/11/28 13:14:13;;;;;;;61.72;18.55;;;;;;;;;;4884899;29;20133;-76
2022/11/28 13:16:41;;;;;;;51.92;17.42;;;;;;;;;;4877087;29;20053;-76
2022/11/28 13:19:19;;;;;;;54.40;17.50;;;;;;;;;;4875840;29;20249;-77
2022/11/28 13:22:04;;;;;;;57.85;19.83;;;;;;;;;;4867373;29;20080;-77
2022/11/28 13:24:34;;;;;;;57.58;22.20;;;;;;;;;;4871101;29;20509;-76
2022/11/28 13:27:31;;;;;;;60.23;18.87;;;;;;;;;;4881938;29;20511;-77
2022/11/28 13:29:57;;;;;;;57.40;19.20;;;;;;;;;;4870257;29;20535;-77
2022/11/28 13:32:24;;;;;;;60.47;20.40;;;;;;;;;;4887657;29;20599;-77
2022/11/28 13:34:50;;;;;;;61.40;19.00;;;;;;;;;;4872919;29;20049;-76
2022/11/28 13:37:17;;;;;;;58.70;18.95;;;;;;;;;;4873385;29;20500;-77
2022/11/28 13:40:06;;;;;;;62.97;20.48;;;;;;;;;;4875633;29;20049;-77
2022/11/28 13:42:53;;;;;;;68.85;20.40;;;;;;;;;;4872550;29;20061;-76
2022/11/28 13:45:37;;;;;;;60.55;18.65;;;;;;;;;;4886652;29;20159;-76
2022/11/28 13:48:23;;;;;;;65.97;20.70;;;;;;;;;;4889622;29;20082;-77
2022/11/28 13:51:46;;;;;;;64.32;18.92;;;;;;;;;;4884968;29;20516;-76
2022/11/28 13:54:19;;;;;;;67.50;19.77;;;;;;;;;;4816653;29;20107;-77
2022/11/28 13:56:46;;;;;;;74.40;21.08;;;;;;;;;;4857807;29;20053;-76
2022/11/28 13:59:22;;;;;;;69.10;19.55;;;;;;;;;;4866677;29;20065;-77
2022/11/28 14:01:56;;;;;;;79.32;22.08;;;;;;;;;;4862885;29;20058;-78
2022/11/28 14:04:23;;;;;;;83.50;21.70;;;;;;;;;;4857421;29;20067;-77
2022/11/28 14:06:57;;;;;;;70.35;20.77;;;;;;;;;;4871021;29;20064;-77
2022/11/28 14:09:47;;;;;;;79.00;20.92;;;;;;;;;;4865846;29;20054;-77
2022/11/28 14:12:16;;;;;;;81.82;21.75;;;;;;;;;;4888449;29;20060;-77
2022/11/28 14:14:42;;;;;;;75.10;21.67;;;;;;;;;;4872441;29;20140;-77
2022/11/28 14:17:12;;;;;;;69.95;21.67;;;;;;;;;;4885017;29;20064;-77
2022/11/28 14:19:45;;;;;;;67.60;19.50;;;;;;;;;;4872650;29;20057;-77
2022/11/28 14:22:18;;;;;;;74.85;20.05;;;;;;;;;;4873056;29;20057;-78
2022/11/28 14:24:52;;;;;;;70.40;21.27;;;;;;;;;;4871706;29;20144;-76
2022/11/28 14:27:23;;;;;;;73.85;20.35;;;;;;;;;;4868325;29;20060;-77
2022/11/28 14:29:51;;;;;;;63.67;19.90;;;;;;;;;;4888597;29;20057;-77
2022/11/28 14:32:23;;;;;;;66.05;19.05;;;;;;;;;;4869833;29;20064;-77
2022/11/28 14:34:57;;;;;;;67.60;18.58;;;;;;;;;;4866760;29;20125;-78
2022/11/28 14:37:26;;;;;;;69.20;19.63;;;;;;;;;;4870467;29;20440;-77
2022/11/28 14:39:53;;;;;;;82.55;22.25;;;;;;;;;;4863735;29;20069;-77
2022/11/28 14:42:23;;;;;;;79.22;21.00;;;;;;;;;;4873653;29;22385;-77
2022/11/28 14:45:44;;;;;;;71.18;20.50;;;;;;;;;;4879526;29;20061;-77